sensor_id;sensor_type;location;lat;lon;timestamp;P1;durP1;ratioP1;P2;durP2;ratioP2
21034;SDS011;10676;50.848;3.272;2024-03-02T00:01:04;134.07;;;124.22;;
21034;SDS011;10676;50.848;3.272;2024-03-02T00:03:31;131.23;;;121.65;;
21034;SDS011;10676;50.848;3.272;2024-03-02T00:05:57;135.13;;;125.22;;
21034;SDS011;10676;50.848;3.272;2024-03-02T00:08:26;136.52;;;126.43;;
21034;SDS011;10676;50.848;3.272;2024-03-02T00:10:51;131.95;;;122.00;;
21034;SDS011;10676;50.848;3.272;2024-03-02T00:13:21;131.57;;;121.45;;
21034;SDS011;10676;50.848;3.272;2024-03-02T00:15:48;134.80;;;124.93;;
21034;SDS011;10676;50.848;3.272;2024-03-02T00:18:20;134.80;;;124.90;;
21034;SDS011;10676;50.848;3.272;2024-03-02T00:20:54;138.98;;;128.82;;
21034;SDS011;10676;50.848;3.272;2024-03-02T00:23:24;131.68;;;122.00;;
21034;SDS011;10676;50.848;3.272;2024-03-02T00:25:53;131.35;;;121.68;;
21034;SDS011;10676;50.848;3.272;2024-03-02T00:28:21;133.65;;;123.82;;
21034;SDS011;10676;50.848;3.272;2024-03-02T00:31:03;132.48;;;122.50;;
21034;SDS011;10676;50.848;3.272;2024-03-02T00:33:34;128.40;;;118.60;;
21034;SDS011;10676;50.848;3.272;2024-03-02T00:36:04;132.02;;;122.07;;
21034;SDS011;10676;50.848;3.272;2024-03-02T00:38:31;130.80;;;121.20;;
21034;SDS011;10676;50.848;3.272;2024-03-02T00:40:59;133.02;;;123.18;;
21034;SDS011;10676;50.848;3.272;2024-03-02T00:46:03;132.90;;;123.00;;
21034;SDS011;10676;50.848;3.272;2024-03-02T00:48:29;130.60;;;120.80;;
21034;SDS011;10676;50.848;3.272;2024-03-02T00:51:01;130.40;;;120.55;;
21034;SDS011;10676;50.848;3.272;2024-03-02T00:53:28;134.65;;;124.55;;
21034;SDS011;10676;50.848;3.272;2024-03-02T00:55:55;134.05;;;124.05;;
21034;SDS011;10676;50.848;3.272;2024-03-02T00:58:21;132.27;;;122.47;;
21034;SDS011;10676;50.848;3.272;2024-03-02T01:00:48;132.07;;;122.07;;
21034;SDS011;10676;50.848;3.272;2024-03-02T01:03:14;134.15;;;124.05;;
21034;SDS011;10676;50.848;3.272;2024-03-02T01:05:43;132.00;;;122.13;;
21034;SDS011;10676;50.848;3.272;2024-03-02T01:08:09;133.48;;;123.65;;
21034;SDS011;10676;50.848;3.272;2024-03-02T01:10:35;132.27;;;122.35;;
21034;SDS011;10676;50.848;3.272;2024-03-02T01:13:01;132.77;;;122.78;;
21034;SDS011;10676;50.848;3.272;2024-03-02T01:15:26;133.25;;;123.25;;
21034;SDS011;10676;50.848;3.272;2024-03-02T01:17:52;131.90;;;121.90;;
21034;SDS011;10676;50.848;3.272;2024-03-02T01:20:18;134.68;;;124.57;;
21034;SDS011;10676;50.848;3.272;2024-03-02T01:22:45;134.75;;;124.05;;
21034;SDS011;10676;50.848;3.272;2024-03-02T01:25:12;130.27;;;120.32;;
21034;SDS011;10676;50.848;3.272;2024-03-02T01:27:38;130.85;;;120.93;;
21034;SDS011;10676;50.848;3.272;2024-03-02T01:30:04;129.52;;;119.45;;
21034;SDS011;10676;50.848;3.272;2024-03-02T01:32:32;131.25;;;121.28;;
21034;SDS011;10676;50.848;3.272;2024-03-02T01:34:58;131.38;;;121.40;;
21034;SDS011;10676;50.848;3.272;2024-03-02T01:37:23;130.35;;;120.47;;
21034;SDS011;10676;50.848;3.272;2024-03-02T01:39:49;134.48;;;123.85;;
21034;SDS011;10676;50.848;3.272;2024-03-02T01:42:15;130.93;;;120.85;;
21034;SDS011;10676;50.848;3.272;2024-03-02T01:44:41;135.38;;;125.22;;
21034;SDS011;10676;50.848;3.272;2024-03-02T01:47:06;131.00;;;120.72;;
21034;SDS011;10676;50.848;3.272;2024-03-02T01:49:32;130.95;;;120.95;;
21034;SDS011;10676;50.848;3.272;2024-03-02T01:51:59;131.43;;;121.22;;
21034;SDS011;10676;50.848;3.272;2024-03-02T01:54:25;133.35;;;122.93;;
21034;SDS011;10676;50.848;3.272;2024-03-02T01:56:50;129.23;;;119.10;;
21034;SDS011;10676;50.848;3.272;2024-03-02T01:59:16;129.23;;;119.03;;
21034;SDS011;10676;50.848;3.272;2024-03-02T02:01:42;135.50;;;124.75;;
21034;SDS011;10676;50.848;3.272;2024-03-02T02:04:08;132.18;;;122.00;;
21034;SDS011;10676;50.848;3.272;2024-03-02T02:06:34;127.75;;;117.68;;
21034;SDS011;10676;50.848;3.272;2024-03-02T02:09:00;129.97;;;119.70;;
21034;SDS011;10676;50.848;3.272;2024-03-02T02:11:26;129.93;;;119.38;;
21034;SDS011;10676;50.848;3.272;2024-03-02T02:13:51;129.63;;;119.53;;
21034;SDS011;10676;50.848;3.272;2024-03-02T02:16:20;132.43;;;121.90;;
21034;SDS011;10676;50.848;3.272;2024-03-02T02:18:46;129.27;;;118.90;;
21034;SDS011;10676;50.848;3.272;2024-03-02T02:21:13;132.65;;;121.97;;
21034;SDS011;10676;50.848;3.272;2024-03-02T02:23:39;132.48;;;121.97;;
21034;SDS011;10676;50.848;3.272;2024-03-02T02:26:04;130.82;;;120.40;;
21034;SDS011;10676;50.848;3.272;2024-03-02T02:28:30;130.93;;;120.47;;
21034;SDS011;10676;50.848;3.272;2024-03-02T02:30:56;130.57;;;120.18;;
21034;SDS011;10676;50.848;3.272;2024-03-02T02:33:22;133.68;;;123.07;;
21034;SDS011;10676;50.848;3.272;2024-03-02T02:35:48;129.23;;;118.93;;
21034;SDS011;10676;50.848;3.272;2024-03-02T02:38:14;133.25;;;122.45;;
21034;SDS011;10676;50.848;3.272;2024-03-02T02:40:40;127.85;;;117.57;;
21034;SDS011;10676;50.848;3.272;2024-03-02T02:43:06;134.18;;;123.53;;
21034;SDS011;10676;50.848;3.272;2024-03-02T02:45:32;129.15;;;119.07;;
21034;SDS011;10676;50.848;3.272;2024-03-02T02:47:57;132.27;;;121.93;;
21034;SDS011;10676;50.848;3.272;2024-03-02T02:50:23;131.13;;;120.90;;
21034;SDS011;10676;50.848;3.272;2024-03-02T02:52:49;129.52;;;119.20;;
21034;SDS011;10676;50.848;3.272;2024-03-02T02:55:15;128.60;;;118.07;;
21034;SDS011;10676;50.848;3.272;2024-03-02T02:57:41;133.73;;;123.18;;
21034;SDS011;10676;50.848;3.272;2024-03-02T03:00:12;133.33;;;122.83;;
21034;SDS011;10676;50.848;3.272;2024-03-02T03:02:40;131.25;;;120.75;;
21034;SDS011;10676;50.848;3.272;2024-03-02T03:05:07;130.87;;;120.77;;
21034;SDS011;10676;50.848;3.272;2024-03-02T03:07:34;131.57;;;121.35;;
21034;SDS011;10676;50.848;3.272;2024-03-02T03:10:00;131.40;;;121.00;;
21034;SDS011;10676;50.848;3.272;2024-03-02T03:12:26;130.47;;;120.13;;
21034;SDS011;10676;50.848;3.272;2024-03-02T03:14:52;130.33;;;119.90;;
21034;SDS011;10676;50.848;3.272;2024-03-02T03:17:17;129.20;;;118.83;;
21034;SDS011;10676;50.848;3.272;2024-03-02T03:19:43;126.53;;;116.50;;
21034;SDS011;10676;50.848;3.272;2024-03-02T03:22:09;128.33;;;117.80;;
21034;SDS011;10676;50.848;3.272;2024-03-02T03:24:34;130.60;;;120.50;;
21034;SDS011;10676;50.848;3.272;2024-03-02T03:27:00;125.93;;;115.73;;
21034;SDS011;10676;50.848;3.272;2024-03-02T03:29:26;126.67;;;116.60;;
21034;SDS011;10676;50.848;3.272;2024-03-02T03:31:51;130.40;;;120.17;;
21034;SDS011;10676;50.848;3.272;2024-03-02T03:34:17;128.67;;;118.50;;
21034;SDS011;10676;50.848;3.272;2024-03-02T03:36:43;125.00;;;115.40;;
21034;SDS011;10676;50.848;3.272;2024-03-02T03:39:09;125.85;;;115.88;;
21034;SDS011;10676;50.848;3.272;2024-03-02T03:41:34;128.30;;;118.37;;
21034;SDS011;10676;50.848;3.272;2024-03-02T03:44:00;127.53;;;117.70;;
21034;SDS011;10676;50.848;3.272;2024-03-02T03:46:26;129.10;;;119.23;;
21034;SDS011;10676;50.848;3.272;2024-03-02T03:48:51;124.00;;;114.40;;
21034;SDS011;10676;50.848;3.272;2024-03-02T03:51:17;124.90;;;115.10;;
21034;SDS011;10676;50.848;3.272;2024-03-02T03:53:43;126.13;;;116.23;;
21034;SDS011;10676;50.848;3.272;2024-03-02T03:56:08;128.43;;;118.30;;
21034;SDS011;10676;50.848;3.272;2024-03-02T03:58:34;126.05;;;116.15;;
21034;SDS011;10676;50.848;3.272;2024-03-02T04:01:00;127.23;;;117.37;;
21034;SDS011;10676;50.848;3.272;2024-03-02T04:03:26;127.70;;;118.00;;
21034;SDS011;10676;50.848;3.272;2024-03-02T04:05:51;127.60;;;117.67;;
21034;SDS011;10676;50.848;3.272;2024-03-02T04:08:17;125.68;;;115.80;;
21034;SDS011;10676;50.848;3.272;2024-03-02T04:10:43;126.10;;;115.87;;
21034;SDS011;10676;50.848;3.272;2024-03-02T04:13:09;126.90;;;117.05;;
21034;SDS011;10676;50.848;3.272;2024-03-02T04:15:34;127.27;;;117.37;;
21034;SDS011;10676;50.848;3.272;2024-03-02T04:18:00;128.57;;;118.57;;
21034;SDS011;10676;50.848;3.272;2024-03-02T04:20:27;127.73;;;118.03;;
21034;SDS011;10676;50.848;3.272;2024-03-02T04:22:53;127.47;;;117.87;;
21034;SDS011;10676;50.848;3.272;2024-03-02T04:25:18;124.83;;;114.60;;
21034;SDS011;10676;50.848;3.272;2024-03-02T04:27:45;125.95;;;116.30;;
21034;SDS011;10676;50.848;3.272;2024-03-02T04:30:10;121.30;;;112.00;;
21034;SDS011;10676;50.848;3.272;2024-03-02T04:32:36;125.07;;;115.47;;
21034;SDS011;10676;50.848;3.272;2024-03-02T04:35:02;125.40;;;115.18;;
21034;SDS011;10676;50.848;3.272;2024-03-02T04:37:29;128.43;;;118.28;;
21034;SDS011;10676;50.848;3.272;2024-03-02T04:39:56;123.93;;;114.10;;
21034;SDS011;10676;50.848;3.272;2024-03-02T04:42:22;120.43;;;110.82;;
21034;SDS011;10676;50.848;3.272;2024-03-02T04:44:48;121.82;;;112.13;;
21034;SDS011;10676;50.848;3.272;2024-03-02T04:47:15;123.17;;;112.90;;
21034;SDS011;10676;50.848;3.272;2024-03-02T04:49:40;123.90;;;114.20;;
21034;SDS011;10676;50.848;3.272;2024-03-02T04:52:06;124.07;;;114.43;;
21034;SDS011;10676;50.848;3.272;2024-03-02T04:54:32;123.68;;;113.75;;
21034;SDS011;10676;50.848;3.272;2024-03-02T04:57:00;120.43;;;110.90;;
21034;SDS011;10676;50.848;3.272;2024-03-02T04:59:25;122.83;;;113.00;;
21034;SDS011;10676;50.848;3.272;2024-03-02T05:01:53;118.88;;;109.40;;
21034;SDS011;10676;50.848;3.272;2024-03-02T05:04:18;121.78;;;111.60;;
21034;SDS011;10676;50.848;3.272;2024-03-02T05:06:44;122.83;;;112.83;;
21034;SDS011;10676;50.848;3.272;2024-03-02T05:09:15;122.57;;;112.85;;
21034;SDS011;10676;50.848;3.272;2024-03-02T05:11:41;121.45;;;112.35;;
21034;SDS011;10676;50.848;3.272;2024-03-02T05:14:09;121.33;;;111.53;;
21034;SDS011;10676;50.848;3.272;2024-03-02T05:16:35;123.37;;;113.13;;
21034;SDS011;10676;50.848;3.272;2024-03-02T05:19:05;119.38;;;110.25;;
21034;SDS011;10676;50.848;3.272;2024-03-02T05:21:34;122.43;;;112.77;;
21034;SDS011;10676;50.848;3.272;2024-03-02T05:24:00;123.87;;;114.17;;
21034;SDS011;10676;50.848;3.272;2024-03-02T05:26:27;126.68;;;116.93;;
21034;SDS011;10676;50.848;3.272;2024-03-02T05:28:53;123.00;;;113.65;;
21034;SDS011;10676;50.848;3.272;2024-03-02T05:31:19;123.70;;;114.03;;
21034;SDS011;10676;50.848;3.272;2024-03-02T05:33:44;120.38;;;110.97;;
21034;SDS011;10676;50.848;3.272;2024-03-02T05:36:10;125.63;;;116.05;;
21034;SDS011;10676;50.848;3.272;2024-03-02T05:38:36;126.73;;;116.77;;
21034;SDS011;10676;50.848;3.272;2024-03-02T05:41:02;126.17;;;116.27;;
21034;SDS011;10676;50.848;3.272;2024-03-02T05:43:28;127.53;;;117.80;;
21034;SDS011;10676;50.848;3.272;2024-03-02T05:45:54;127.10;;;117.27;;
21034;SDS011;10676;50.848;3.272;2024-03-02T05:48:20;127.07;;;116.93;;
21034;SDS011;10676;50.848;3.272;2024-03-02T05:50:46;127.70;;;117.50;;
21034;SDS011;10676;50.848;3.272;2024-03-02T05:53:11;126.43;;;116.87;;
21034;SDS011;10676;50.848;3.272;2024-03-02T05:55:37;124.53;;;114.70;;
21034;SDS011;10676;50.848;3.272;2024-03-02T05:58:03;123.33;;;114.10;;
21034;SDS011;10676;50.848;3.272;2024-03-02T06:00:31;124.80;;;115.07;;
21034;SDS011;10676;50.848;3.272;2024-03-02T06:02:57;125.00;;;115.17;;
21034;SDS011;10676;50.848;3.272;2024-03-02T06:05:23;126.57;;;116.63;;
21034;SDS011;10676;50.848;3.272;2024-03-02T06:07:49;127.67;;;117.83;;
21034;SDS011;10676;50.848;3.272;2024-03-02T06:10:15;121.23;;;110.93;;
21034;SDS011;10676;50.848;3.272;2024-03-02T06:12:41;121.80;;;112.20;;
21034;SDS011;10676;50.848;3.272;2024-03-02T06:15:07;122.30;;;112.37;;
21034;SDS011;10676;50.848;3.272;2024-03-02T06:17:34;120.13;;;110.32;;
21034;SDS011;10676;50.848;3.272;2024-03-02T06:20:00;116.77;;;107.37;;
21034;SDS011;10676;50.848;3.272;2024-03-02T06:22:26;119.10;;;109.07;;
21034;SDS011;10676;50.848;3.272;2024-03-02T06:24:52;115.60;;;106.17;;
21034;SDS011;10676;50.848;3.272;2024-03-02T06:27:18;120.15;;;110.28;;
21034;SDS011;10676;50.848;3.272;2024-03-02T06:29:45;120.35;;;110.85;;
21034;SDS011;10676;50.848;3.272;2024-03-02T06:32:10;111.73;;;102.90;;
21034;SDS011;10676;50.848;3.272;2024-03-02T06:34:36;115.93;;;106.90;;
21034;SDS011;10676;50.848;3.272;2024-03-02T06:37:02;113.33;;;104.23;;
21034;SDS011;10676;50.848;3.272;2024-03-02T06:39:28;116.27;;;107.00;;
21034;SDS011;10676;50.848;3.272;2024-03-02T06:41:53;108.97;;;100.23;;
21034;SDS011;10676;50.848;3.272;2024-03-02T06:44:19;111.73;;;102.83;;
21034;SDS011;10676;50.848;3.272;2024-03-02T06:46:46;112.17;;;103.33;;
21034;SDS011;10676;50.848;3.272;2024-03-02T06:49:11;110.15;;;101.30;;
21034;SDS011;10676;50.848;3.272;2024-03-02T06:51:37;104.45;;;95.60;;
21034;SDS011;10676;50.848;3.272;2024-03-02T06:54:03;103.85;;;95.00;;
21034;SDS011;10676;50.848;3.272;2024-03-02T06:56:29;98.53;;;89.80;;
21034;SDS011;10676;50.848;3.272;2024-03-02T06:58:55;98.45;;;89.90;;
21034;SDS011;10676;50.848;3.272;2024-03-02T07:01:21;94.68;;;86.30;;
21034;SDS011;10676;50.848;3.272;2024-03-02T07:03:47;91.50;;;83.43;;
21034;SDS011;10676;50.848;3.272;2024-03-02T07:06:12;93.07;;;85.07;;
21034;SDS011;10676;50.848;3.272;2024-03-02T07:08:38;93.03;;;85.15;;
21034;SDS011;10676;50.848;3.272;2024-03-02T07:11:04;89.43;;;81.25;;
21034;SDS011;10676;50.848;3.272;2024-03-02T07:13:29;88.68;;;81.13;;
21034;SDS011;10676;50.848;3.272;2024-03-02T07:15:55;84.35;;;77.35;;
21034;SDS011;10676;50.848;3.272;2024-03-02T07:18:36;84.63;;;77.47;;
21034;SDS011;10676;50.848;3.272;2024-03-02T07:21:10;82.78;;;75.50;;
21034;SDS011;10676;50.848;3.272;2024-03-02T07:23:35;78.95;;;72.32;;
21034;SDS011;10676;50.848;3.272;2024-03-02T07:26:01;76.40;;;69.90;;
21034;SDS011;10676;50.848;3.272;2024-03-02T07:28:28;72.32;;;66.05;;
21034;SDS011;10676;50.848;3.272;2024-03-02T07:31:03;64.07;;;58.10;;
21034;SDS011;10676;50.848;3.272;2024-03-02T07:33:30;63.95;;;58.30;;
21034;SDS011;10676;50.848;3.272;2024-03-02T07:35:56;60.38;;;55.33;;
21034;SDS011;10676;50.848;3.272;2024-03-02T07:38:24;59.17;;;54.40;;
21034;SDS011;10676;50.848;3.272;2024-03-02T07:40:50;53.47;;;49.17;;
21034;SDS011;10676;50.848;3.272;2024-03-02T07:43:16;53.95;;;49.95;;
21034;SDS011;10676;50.848;3.272;2024-03-02T07:45:42;53.40;;;48.58;;
21034;SDS011;10676;50.848;3.272;2024-03-02T07:48:08;49.50;;;45.60;;
21034;SDS011;10676;50.848;3.272;2024-03-02T07:50:34;46.08;;;42.00;;
21034;SDS011;10676;50.848;3.272;2024-03-02T07:53:03;43.33;;;40.22;;
21034;SDS011;10676;50.848;3.272;2024-03-02T07:55:29;39.03;;;35.63;;
21034;SDS011;10676;50.848;3.272;2024-03-02T07:57:55;35.90;;;33.05;;
21034;SDS011;10676;50.848;3.272;2024-03-02T08:00:25;28.83;;;26.67;;
21034;SDS011;10676;50.848;3.272;2024-03-02T08:02:51;28.70;;;26.45;;
21034;SDS011;10676;50.848;3.272;2024-03-02T08:05:17;26.75;;;24.35;;
21034;SDS011;10676;50.848;3.272;2024-03-02T08:07:46;22.67;;;20.65;;
21034;SDS011;10676;50.848;3.272;2024-03-02T08:10:12;22.13;;;19.92;;
21034;SDS011;10676;50.848;3.272;2024-03-02T08:12:38;19.55;;;17.73;;
21034;SDS011;10676;50.848;3.272;2024-03-02T08:15:04;17.80;;;16.50;;
21034;SDS011;10676;50.848;3.272;2024-03-02T08:17:30;16.98;;;15.55;;
21034;SDS011;10676;50.848;3.272;2024-03-02T08:19:56;15.50;;;14.13;;
21034;SDS011;10676;50.848;3.272;2024-03-02T08:22:23;16.60;;;13.73;;
21034;SDS011;10676;50.848;3.272;2024-03-02T08:24:52;14.35;;;13.05;;
21034;SDS011;10676;50.848;3.272;2024-03-02T08:27:19;14.55;;;12.98;;
21034;SDS011;10676;50.848;3.272;2024-03-02T08:29:45;13.77;;;12.23;;
21034;SDS011;10676;50.848;3.272;2024-03-02T08:32:11;13.07;;;11.68;;
21034;SDS011;10676;50.848;3.272;2024-03-02T08:34:38;12.80;;;10.93;;
21034;SDS011;10676;50.848;3.272;2024-03-02T08:37:05;12.10;;;11.05;;
21034;SDS011;10676;50.848;3.272;2024-03-02T08:39:30;13.57;;;10.93;;
21034;SDS011;10676;50.848;3.272;2024-03-02T08:41:56;12.85;;;11.00;;
21034;SDS011;10676;50.848;3.272;2024-03-02T08:44:22;13.88;;;11.52;;
21034;SDS011;10676;50.848;3.272;2024-03-02T08:46:47;18.45;;;12.55;;
21034;SDS011;10676;50.848;3.272;2024-03-02T08:49:13;14.20;;;12.95;;
21034;SDS011;10676;50.848;3.272;2024-03-02T08:51:39;14.35;;;12.93;;
21034;SDS011;10676;50.848;3.272;2024-03-02T08:54:04;14.32;;;12.98;;
21034;SDS011;10676;50.848;3.272;2024-03-02T08:56:30;16.83;;;13.13;;
21034;SDS011;10676;50.848;3.272;2024-03-02T08:58:56;15.27;;;13.23;;
21034;SDS011;10676;50.848;3.272;2024-03-02T09:01:22;16.63;;;13.02;;
21034;SDS011;10676;50.848;3.272;2024-03-02T09:03:48;15.18;;;12.80;;
21034;SDS011;10676;50.848;3.272;2024-03-02T09:06:14;14.07;;;11.43;;
21034;SDS011;10676;50.848;3.272;2024-03-02T09:08:44;13.32;;;11.82;;
21034;SDS011;10676;50.848;3.272;2024-03-02T09:11:10;12.93;;;11.65;;
21034;SDS011;10676;50.848;3.272;2024-03-02T09:13:37;12.73;;;11.57;;
21034;SDS011;10676;50.848;3.272;2024-03-02T09:16:03;15.55;;;11.40;;
21034;SDS011;10676;50.848;3.272;2024-03-02T09:18:30;12.73;;;11.57;;
21034;SDS011;10676;50.848;3.272;2024-03-02T09:20:56;13.55;;;11.50;;
21034;SDS011;10676;50.848;3.272;2024-03-02T09:23:22;13.93;;;11.82;;
21034;SDS011;10676;50.848;3.272;2024-03-02T09:25:48;16.45;;;11.27;;
21034;SDS011;10676;50.848;3.272;2024-03-02T09:28:15;11.88;;;10.43;;
21034;SDS011;10676;50.848;3.272;2024-03-02T09:30:41;15.65;;;10.88;;
21034;SDS011;10676;50.848;3.272;2024-03-02T09:33:06;10.50;;;9.45;;
21034;SDS011;10676;50.848;3.272;2024-03-02T09:35:32;15.30;;;9.40;;
21034;SDS011;10676;50.848;3.272;2024-03-02T09:37:58;10.40;;;9.00;;
21034;SDS011;10676;50.848;3.272;2024-03-02T09:40:23;22.10;;;8.55;;
21034;SDS011;10676;50.848;3.272;2024-03-02T09:42:50;12.07;;;7.80;;
21034;SDS011;10676;50.848;3.272;2024-03-02T09:45:23;11.52;;;7.90;;
21034;SDS011;10676;50.848;3.272;2024-03-02T09:47:49;9.00;;;7.45;;
21034;SDS011;10676;50.848;3.272;2024-03-02T09:50:15;9.05;;;7.03;;
21034;SDS011;10676;50.848;3.272;2024-03-02T09:52:44;8.10;;;6.68;;
21034;SDS011;10676;50.848;3.272;2024-03-02T09:55:15;9.40;;;5.82;;
21034;SDS011;10676;50.848;3.272;2024-03-02T09:57:42;8.65;;;5.85;;
21034;SDS011;10676;50.848;3.272;2024-03-02T10:00:08;7.80;;;5.68;;
21034;SDS011;10676;50.848;3.272;2024-03-02T10:02:34;11.60;;;5.50;;
21034;SDS011;10676;50.848;3.272;2024-03-02T10:04:59;6.57;;;5.22;;
21034;SDS011;10676;50.848;3.272;2024-03-02T10:07:25;10.23;;;5.03;;
21034;SDS011;10676;50.848;3.272;2024-03-02T10:09:51;7.45;;;5.20;;
21034;SDS011;10676;50.848;3.272;2024-03-02T10:12:17;8.40;;;5.13;;
21034;SDS011;10676;50.848;3.272;2024-03-02T10:14:43;6.93;;;5.15;;
21034;SDS011;10676;50.848;3.272;2024-03-02T10:17:10;7.03;;;4.70;;
21034;SDS011;10676;50.848;3.272;2024-03-02T10:19:38;6.40;;;5.00;;
21034;SDS011;10676;50.848;3.272;2024-03-02T10:22:05;10.75;;;4.82;;
21034;SDS011;10676;50.848;3.272;2024-03-02T10:24:36;11.63;;;5.65;;
21034;SDS011;10676;50.848;3.272;2024-03-02T10:27:06;6.25;;;5.13;;
21034;SDS011;10676;50.848;3.272;2024-03-02T10:29:36;7.10;;;5.72;;
21034;SDS011;10676;50.848;3.272;2024-03-02T10:32:03;6.82;;;5.95;;
21034;SDS011;10676;50.848;3.272;2024-03-02T10:34:31;7.82;;;5.55;;
21034;SDS011;10676;50.848;3.272;2024-03-02T10:36:57;9.38;;;5.50;;
21034;SDS011;10676;50.848;3.272;2024-03-02T10:39:25;6.70;;;5.75;;
21034;SDS011;10676;50.848;3.272;2024-03-02T10:41:51;7.75;;;5.80;;
21034;SDS011;10676;50.848;3.272;2024-03-02T10:44:18;7.75;;;5.55;;
21034;SDS011;10676;50.848;3.272;2024-03-02T10:46:44;9.07;;;5.15;;
21034;SDS011;10676;50.848;3.272;2024-03-02T10:49:12;11.30;;;5.72;;
21034;SDS011;10676;50.848;3.272;2024-03-02T10:51:37;6.32;;;5.60;;
21034;SDS011;10676;50.848;3.272;2024-03-02T10:54:03;10.30;;;6.32;;
21034;SDS011;10676;50.848;3.272;2024-03-02T10:56:34;12.77;;;6.70;;
21034;SDS011;10676;50.848;3.272;2024-03-02T11:01:59;8.98;;;6.38;;
21034;SDS011;10676;50.848;3.272;2024-03-02T11:04:28;11.07;;;6.75;;
21034;SDS011;10676;50.848;3.272;2024-03-02T11:07:07;9.75;;;7.05;;
21034;SDS011;10676;50.848;3.272;2024-03-02T11:09:36;7.38;;;6.40;;
21034;SDS011;10676;50.848;3.272;2024-03-02T11:14:37;8.25;;;6.32;;
21034;SDS011;10676;50.848;3.272;2024-03-02T11:17:09;8.10;;;6.03;;
21034;SDS011;10676;50.848;3.272;2024-03-02T11:19:39;9.60;;;6.10;;
21034;SDS011;10676;50.848;3.272;2024-03-02T11:22:06;6.53;;;5.90;;
21034;SDS011;10676;50.848;3.272;2024-03-02T11:24:33;6.80;;;5.47;;
21034;SDS011;10676;50.848;3.272;2024-03-02T11:26:59;5.13;;;4.53;;
21034;SDS011;10676;50.848;3.272;2024-03-02T11:34:45;6.50;;;5.20;;
21034;SDS011;10676;50.848;3.272;2024-03-02T11:37:12;11.00;;;5.32;;
21034;SDS011;10676;50.848;3.272;2024-03-02T11:39:42;8.02;;;5.70;;
21034;SDS011;10676;50.848;3.272;2024-03-02T11:42:10;8.13;;;6.32;;
21034;SDS011;10676;50.848;3.272;2024-03-02T11:44:57;8.13;;;6.65;;
21034;SDS011;10676;50.848;3.272;2024-03-02T11:47:24;11.65;;;7.43;;
21034;SDS011;10676;50.848;3.272;2024-03-02T11:49:57;10.50;;;8.98;;
21034;SDS011;10676;50.848;3.272;2024-03-02T11:52:24;12.07;;;10.90;;
21034;SDS011;10676;50.848;3.272;2024-03-02T11:54:52;13.05;;;11.57;;
21034;SDS011;10676;50.848;3.272;2024-03-02T11:57:19;15.85;;;13.23;;
21034;SDS011;10676;50.848;3.272;2024-03-02T11:59:48;15.25;;;13.82;;
21034;SDS011;10676;50.848;3.272;2024-03-02T12:02:19;15.10;;;13.85;;
21034;SDS011;10676;50.848;3.272;2024-03-02T12:04:47;16.65;;;15.18;;
21034;SDS011;10676;50.848;3.272;2024-03-02T12:07:22;16.50;;;15.02;;
21034;SDS011;10676;50.848;3.272;2024-03-02T12:09:49;16.80;;;15.43;;
21034;SDS011;10676;50.848;3.272;2024-03-02T12:12:23;18.15;;;16.45;;
21034;SDS011;10676;50.848;3.272;2024-03-02T12:14:53;18.60;;;17.00;;
21034;SDS011;10676;50.848;3.272;2024-03-02T12:17:20;19.88;;;17.85;;
21034;SDS011;10676;50.848;3.272;2024-03-02T12:19:47;21.10;;;19.23;;
21034;SDS011;10676;50.848;3.272;2024-03-02T12:22:13;22.40;;;20.35;;
21034;SDS011;10676;50.848;3.272;2024-03-02T12:24:41;23.73;;;21.70;;
21034;SDS011;10676;50.848;3.272;2024-03-02T12:27:07;24.63;;;22.52;;
21034;SDS011;10676;50.848;3.272;2024-03-02T12:29:33;28.48;;;25.92;;
21034;SDS011;10676;50.848;3.272;2024-03-02T12:31:59;29.83;;;27.17;;
21034;SDS011;10676;50.848;3.272;2024-03-02T12:34:27;32.00;;;29.40;;
21034;SDS011;10676;50.848;3.272;2024-03-02T12:36:53;35.38;;;32.30;;
21034;SDS011;10676;50.848;3.272;2024-03-02T12:39:19;36.47;;;33.42;;
21034;SDS011;10676;50.848;3.272;2024-03-02T12:41:54;37.15;;;33.92;;
21034;SDS011;10676;50.848;3.272;2024-03-02T12:44:20;38.83;;;35.63;;
21034;SDS011;10676;50.848;3.272;2024-03-02T12:46:46;41.67;;;37.63;;
21034;SDS011;10676;50.848;3.272;2024-03-02T12:49:13;43.42;;;39.55;;
21034;SDS011;10676;50.848;3.272;2024-03-02T12:51:41;43.15;;;39.58;;
21034;SDS011;10676;50.848;3.272;2024-03-02T12:54:08;44.00;;;40.60;;
21034;SDS011;10676;50.848;3.272;2024-03-02T12:56:35;46.30;;;42.42;;
21034;SDS011;10676;50.848;3.272;2024-03-02T12:59:02;46.85;;;42.72;;
21034;SDS011;10676;50.848;3.272;2024-03-02T13:01:28;51.17;;;46.60;;
21034;SDS011;10676;50.848;3.272;2024-03-02T13:03:55;52.00;;;47.88;;
21034;SDS011;10676;50.848;3.272;2024-03-02T13:06:22;53.72;;;49.50;;
21034;SDS011;10676;50.848;3.272;2024-03-02T13:08:49;54.55;;;49.78;;
21034;SDS011;10676;50.848;3.272;2024-03-02T13:11:15;52.45;;;47.75;;
21034;SDS011;10676;50.848;3.272;2024-03-02T13:13:41;52.88;;;48.67;;
21034;SDS011;10676;50.848;3.272;2024-03-02T13:16:10;53.53;;;48.80;;
21034;SDS011;10676;50.848;3.272;2024-03-02T13:18:40;52.58;;;48.47;;
21034;SDS011;10676;50.848;3.272;2024-03-02T13:21:07;54.00;;;49.80;;
21034;SDS011;10676;50.848;3.272;2024-03-02T13:23:36;57.55;;;53.25;;
21034;SDS011;10676;50.848;3.272;2024-03-02T13:26:02;61.40;;;56.60;;
21034;SDS011;10676;50.848;3.272;2024-03-02T13:28:28;55.22;;;51.00;;
21034;SDS011;10676;50.848;3.272;2024-03-02T13:30:54;60.88;;;56.22;;
21034;SDS011;10676;50.848;3.272;2024-03-02T13:33:19;61.88;;;56.90;;
21034;SDS011;10676;50.848;3.272;2024-03-02T13:35:50;54.65;;;50.38;;
21034;SDS011;10676;50.848;3.272;2024-03-02T13:38:20;46.33;;;42.40;;
21034;SDS011;10676;50.848;3.272;2024-03-02T13:40:46;46.75;;;42.80;;
21034;SDS011;10676;50.848;3.272;2024-03-02T13:43:17;44.58;;;41.08;;
21034;SDS011;10676;50.848;3.272;2024-03-02T13:45:44;40.63;;;37.42;;
21034;SDS011;10676;50.848;3.272;2024-03-02T13:48:10;41.00;;;37.63;;
21034;SDS011;10676;50.848;3.272;2024-03-02T13:50:35;42.38;;;39.03;;
21034;SDS011;10676;50.848;3.272;2024-03-02T13:53:01;42.60;;;39.03;;
21034;SDS011;10676;50.848;3.272;2024-03-02T13:55:28;42.90;;;39.65;;
21034;SDS011;10676;50.848;3.272;2024-03-02T13:57:53;43.50;;;40.00;;
21034;SDS011;10676;50.848;3.272;2024-03-02T14:00:19;46.40;;;42.60;;
21034;SDS011;10676;50.848;3.272;2024-03-02T14:02:45;44.90;;;41.33;;
21034;SDS011;10676;50.848;3.272;2024-03-02T14:05:11;45.95;;;42.33;;
21034;SDS011;10676;50.848;3.272;2024-03-02T14:07:38;49.22;;;45.33;;
21034;SDS011;10676;50.848;3.272;2024-03-02T14:10:04;50.13;;;46.15;;
21034;SDS011;10676;50.848;3.272;2024-03-02T14:12:30;53.33;;;49.15;;
21034;SDS011;10676;50.848;3.272;2024-03-02T14:14:56;56.35;;;52.05;;
21034;SDS011;10676;50.848;3.272;2024-03-02T14:17:27;52.15;;;47.85;;
21034;SDS011;10676;50.848;3.272;2024-03-02T14:19:53;55.97;;;51.45;;
21034;SDS011;10676;50.848;3.272;2024-03-02T14:22:21;55.70;;;51.10;;
21034;SDS011;10676;50.848;3.272;2024-03-02T14:24:47;57.58;;;53.15;;